createdAt,value
2019-03-03T00:01:01.668Z,9.82
2019-03-03T00:03:32.541Z,9.76
2019-03-03T00:06:01.848Z,9.79
2019-03-03T00:08:31.183Z,9.82
2019-03-03T00:11:00.509Z,9.90
2019-03-03T00:13:30.036Z,9.87
2019-03-03T00:15:59.402Z,9.81
2019-03-03T00:18:28.800Z,9.81
2019-03-03T00:20:58.176Z,9.85
2019-03-03T00:23:27.537Z,9.83
2019-03-03T00:25:56.936Z,9.77
2019-03-03T00:28:26.205Z,9.81
2019-03-03T00:30:55.553Z,9.72
2019-03-03T00:33:24.985Z,9.80
2019-03-03T00:35:54.373Z,9.86
2019-03-03T00:38:30.127Z,9.90
2019-03-03T00:41:04.261Z,9.85
2019-03-03T00:43:39.499Z,9.75
2019-03-03T00:46:16.901Z,9.88
2019-03-03T00:48:52.232Z,9.90
2019-03-03T00:51:42.719Z,9.94
2019-03-03T00:54:18.965Z,9.83
2019-03-03T00:56:57.389Z,9.85
2019-03-03T00:59:31.785Z,9.89
2019-03-03T01:02:06.060Z,9.85
2019-03-03T01:04:42.487Z,9.89
2019-03-03T01:07:16.957Z,9.91
2019-03-03T01:09:52.719Z,9.92
2019-03-03T01:12:59.681Z,9.88
2019-03-03T01:15:35.147Z,9.96
2019-03-03T01:18:15.477Z,9.90
2019-03-03T01:21:06.138Z,9.93
2019-03-03T01:23:47.100Z,9.87
2019-03-03T01:26:16.441Z,9.81
2019-03-03T01:28:45.752Z,9.78
2019-03-03T01:31:15.148Z,9.78
2019-03-03T01:33:44.433Z,9.80
2019-03-03T01:36:14.182Z,9.82
2019-03-03T01:38:43.560Z,9.77
2019-03-03T01:41:13.447Z,9.79
2019-03-03T01:43:42.853Z,9.81
2019-03-03T01:46:12.168Z,9.67
2019-03-03T01:48:41.479Z,9.68
2019-03-03T01:51:10.816Z,9.75
2019-03-03T01:53:40.836Z,9.72
2019-03-03T01:56:10.290Z,9.67
2019-03-03T01:58:39.617Z,9.66
2019-03-03T02:01:08.922Z,9.72
2019-03-03T02:03:38.321Z,9.77
2019-03-03T02:06:08.244Z,9.69
2019-03-03T02:08:38.263Z,9.70
2019-03-03T02:11:07.572Z,9.71
2019-03-03T02:13:36.936Z,9.67
2019-03-03T02:16:06.296Z,9.64
2019-03-03T02:18:35.635Z,9.72
2019-03-03T02:21:04.959Z,9.65
2019-03-03T02:23:34.455Z,9.71
2019-03-03T02:26:05.784Z,9.73
2019-03-03T02:28:35.183Z,9.78
2019-03-03T02:31:05.280Z,9.75
2019-03-03T02:33:35.424Z,9.79
2019-03-03T02:36:04.807Z,9.71
2019-03-03T02:38:34.137Z,9.65
2019-03-03T02:41:03.472Z,9.68
2019-03-03T02:43:39.303Z,9.63
2019-03-03T02:46:08.581Z,9.63
2019-03-03T02:48:37.954Z,9.66
2019-03-03T02:51:07.293Z,9.71
2019-03-03T02:53:36.645Z,9.71
2019-03-03T02:56:05.985Z,9.69
2019-03-03T02:58:36.305Z,9.72
2019-03-03T03:01:10.546Z,9.67
2019-03-03T03:03:40.078Z,9.76
2019-03-03T03:06:17.114Z,9.75
2019-03-03T03:08:51.608Z,9.81
2019-03-03T03:11:27.896Z,9.76
2019-03-03T03:14:12.836Z,9.78
2019-03-03T03:16:48.991Z,9.77
2019-03-03T03:19:26.446Z,9.75
2019-03-03T03:22:01.861Z,9.70
2019-03-03T03:24:36.430Z,9.68
2019-03-03T03:27:16.812Z,9.68
2019-03-03T03:31:54.273Z,9.62
2019-03-03T03:34:28.022Z,9.67
2019-03-03T03:37:04.760Z,9.66
2019-03-03T03:39:41.206Z,9.65
2019-03-03T03:42:18.485Z,9.66
2019-03-03T03:44:56.043Z,9.59
2019-03-03T03:47:40.106Z,9.67
2019-03-03T03:50:16.577Z,9.62
2019-03-03T03:52:51.002Z,9.62
2019-03-03T03:55:30.292Z,9.67
2019-03-03T03:58:04.677Z,9.62
2019-03-03T04:00:40.558Z,9.64
2019-03-03T04:06:16.747Z,9.55
2019-03-03T04:08:55.555Z,9.53
2019-03-03T04:11:31.987Z,9.62
2019-03-03T04:14:09.392Z,9.58
2019-03-03T04:16:43.661Z,9.56
2019-03-03T04:19:18.066Z,9.61
2019-03-03T04:21:56.545Z,9.62
2019-03-03T04:24:30.050Z,9.50
2019-03-03T04:27:07.372Z,9.46
2019-03-03T04:29:42.893Z,9.50
2019-03-03T04:32:17.275Z,9.52
2019-03-03T04:34:57.533Z,9.47
2019-03-03T04:37:31.991Z,9.54
2019-03-03T04:40:10.406Z,9.53
2019-03-03T04:42:48.811Z,9.50
2019-03-03T04:46:21.180Z,9.47
2019-03-03T04:48:57.625Z,9.49
2019-03-03T04:51:30.993Z,9.54
2019-03-03T04:55:06.335Z,9.43
2019-03-03T04:57:48.724Z,9.44
2019-03-03T05:00:25.021Z,9.44
2019-03-03T05:02:59.757Z,9.38
2019-03-03T05:05:34.244Z,9.54
2019-03-03T05:08:08.501Z,9.51
2019-03-03T05:10:45.747Z,9.56
2019-03-03T05:13:21.090Z,9.56
2019-03-03T05:16:25.937Z,9.56
2019-03-03T05:18:58.384Z,9.56
2019-03-03T05:21:28.541Z,9.57
2019-03-03T05:23:57.901Z,9.55
2019-03-03T05:26:27.148Z,9.56
2019-03-03T05:28:56.548Z,9.50
2019-03-03T05:31:25.850Z,9.51
2019-03-03T05:33:55.234Z,9.59
2019-03-03T05:36:24.559Z,9.56
2019-03-03T05:38:53.910Z,9.56
2019-03-03T05:41:23.264Z,9.54
2019-03-03T05:43:52.571Z,9.53
2019-03-03T05:46:21.913Z,9.56
2019-03-03T05:48:51.235Z,9.54
2019-03-03T05:51:20.568Z,9.59
2019-03-03T05:53:49.912Z,9.60
2019-03-03T05:56:19.816Z,9.57
2019-03-03T05:58:49.199Z,9.59
2019-03-03T06:01:18.553Z,9.57
2019-03-03T06:03:47.908Z,9.58
2019-03-03T06:06:17.391Z,9.65
2019-03-03T06:08:46.776Z,9.70
2019-03-03T06:11:16.065Z,9.72
2019-03-03T06:13:45.499Z,9.66
2019-03-03T06:16:14.817Z,9.76
2019-03-03T06:18:44.635Z,9.72
2019-03-03T06:21:13.980Z,9.78
2019-03-03T06:23:43.313Z,9.77
2019-03-03T06:26:12.678Z,9.78
2019-03-03T06:28:42.084Z,9.84
2019-03-03T06:31:11.462Z,9.89
2019-03-03T06:33:41.289Z,9.83
2019-03-03T06:36:11.599Z,9.77
2019-03-03T06:38:40.912Z,9.87
2019-03-03T06:41:10.208Z,9.78
2019-03-03T06:43:40.068Z,9.88
2019-03-03T06:46:09.428Z,9.84
2019-03-03T06:48:38.832Z,9.89
2019-03-03T06:51:08.135Z,9.92
2019-03-03T06:53:37.456Z,9.89
2019-03-03T06:56:06.733Z,9.94
2019-03-03T06:58:36.072Z,10.04
2019-03-03T07:01:05.400Z,9.99
2019-03-03T07:03:34.708Z,9.95
2019-03-03T07:06:04.132Z,9.97
2019-03-03T07:08:33.422Z,10.05
2019-03-03T07:11:02.779Z,10.06
2019-03-03T07:13:32.206Z,10.02
2019-03-03T07:16:01.551Z,10.11
2019-03-03T07:18:30.827Z,10.13
2019-03-03T07:21:00.127Z,10.08
2019-03-03T07:23:29.421Z,10.13
2019-03-03T07:25:58.752Z,10.23
2019-03-03T07:28:28.075Z,10.07
2019-03-03T07:30:57.429Z,10.18
2019-03-03T07:33:31.113Z,10.17
2019-03-03T07:36:00.406Z,10.16
2019-03-03T07:38:29.771Z,10.15
2019-03-03T07:40:59.049Z,10.21
2019-03-03T07:43:28.436Z,10.18
2019-03-03T07:45:57.815Z,10.17
2019-03-03T07:48:27.124Z,10.23
2019-03-03T07:50:56.441Z,10.33
2019-03-03T07:53:26.660Z,10.38
2019-03-03T07:55:56.843Z,10.45
2019-03-03T07:58:26.181Z,10.43
2019-03-03T08:00:55.509Z,10.41
2019-03-03T08:03:24.760Z,10.43
2019-03-03T08:05:54.193Z,10.42
2019-03-03T08:08:23.537Z,10.37
2019-03-03T08:10:52.875Z,10.34
2019-03-03T08:13:23.108Z,10.39
2019-03-03T08:15:52.387Z,10.44
2019-03-03T08:18:21.760Z,10.44
2019-03-03T08:20:51.083Z,10.43
2019-03-03T08:23:20.444Z,10.47
2019-03-03T08:25:56.511Z,10.49
2019-03-03T08:28:25.843Z,10.54
2019-03-03T08:30:55.856Z,10.63
2019-03-03T08:33:25.260Z,10.65
2019-03-03T08:35:55.298Z,10.63
2019-03-03T08:38:25.723Z,10.79
2019-03-03T08:40:55.036Z,10.77
2019-03-03T08:43:28.439Z,10.95
2019-03-03T08:46:04.794Z,10.96
2019-03-03T08:48:55.654Z,11.22
2019-03-03T08:51:29.006Z,11.22
2019-03-03T08:54:04.267Z,11.22
2019-03-03T08:56:41.605Z,11.28
2019-03-03T08:59:16.027Z,11.29
2019-03-03T09:01:49.462Z,11.29
2019-03-03T09:04:23.895Z,11.14
2019-03-03T09:06:57.389Z,11.08
2019-03-03T09:09:32.137Z,11.29
2019-03-03T09:14:12.937Z,11.43
2019-03-03T09:16:48.310Z,11.29
2019-03-03T09:19:20.682Z,11.32
2019-03-03T09:21:55.047Z,11.45
2019-03-03T09:26:31.756Z,11.42
2019-03-03T09:29:06.523Z,11.62
2019-03-03T09:31:41.210Z,11.66
2019-03-03T09:36:19.903Z,11.57
2019-03-03T09:40:59.641Z,11.64
2019-03-03T09:43:35.883Z,11.61
2019-03-03T09:46:15.146Z,11.71
2019-03-03T09:48:55.408Z,11.66
2019-03-03T09:51:30.661Z,11.66
2019-03-03T09:54:04.721Z,11.69
2019-03-03T09:56:46.073Z,11.78
2019-03-03T09:59:20.508Z,11.86
2019-03-03T10:01:55.871Z,11.87
2019-03-03T10:04:34.089Z,11.91
2019-03-03T10:07:39.664Z,11.99
2019-03-03T10:10:14.365Z,12.01
2019-03-03T10:12:49.879Z,12.01
2019-03-03T10:15:28.277Z,12.00
2019-03-03T10:18:11.642Z,11.98
2019-03-03T10:20:45.123Z,12.27
2019-03-03T10:23:50.059Z,12.36
2019-03-03T10:26:54.691Z,12.03
2019-03-03T10:30:32.021Z,12.12
2019-03-03T10:33:12.296Z,12.31
2019-03-03T10:35:45.651Z,12.59
2019-03-03T10:38:20.561Z,12.70
2019-03-03T10:40:58.867Z,12.86
2019-03-03T10:43:37.285Z,12.91
2019-03-03T10:48:17.524Z,13.40
2019-03-03T10:50:52.845Z,13.32
2019-03-03T10:54:24.730Z,13.60
2019-03-03T10:57:00.147Z,14.03
2019-03-03T10:59:37.114Z,14.13
2019-03-03T11:02:12.506Z,13.94
2019-03-03T11:04:45.964Z,13.93
2019-03-03T11:07:22.341Z,14.19
2019-03-03T11:09:57.589Z,14.18
2019-03-03T11:12:33.066Z,13.87
2019-03-03T11:17:14.319Z,13.66
2019-03-03T11:19:48.704Z,13.46
2019-03-03T11:22:22.198Z,13.36
2019-03-03T11:25:06.539Z,13.33
2019-03-03T11:27:40.705Z,13.50
2019-03-03T11:30:17.245Z,13.16
2019-03-03T11:32:50.628Z,13.61
2019-03-03T11:35:34.027Z,13.81
2019-03-03T11:38:08.735Z,14.02
2019-03-03T11:40:46.061Z,13.66
2019-03-03T11:43:22.555Z,13.77
2019-03-03T11:48:04.532Z,13.65
2019-03-03T11:50:37.153Z,13.60
2019-03-03T11:53:11.894Z,13.70
2019-03-03T11:55:48.324Z,13.78
2019-03-03T11:58:29.616Z,13.99
2019-03-03T12:01:03.254Z,14.20
2019-03-03T12:03:38.590Z,14.33
2019-03-03T12:06:13.210Z,13.81
2019-03-03T12:08:50.499Z,13.74
2019-03-03T12:12:22.543Z,13.68
2019-03-03T12:14:56.834Z,13.57
2019-03-03T12:18:34.228Z,13.56
2019-03-03T12:21:08.711Z,13.06
2019-03-03T12:23:42.284Z,12.95
2019-03-03T12:26:17.185Z,12.89
2019-03-03T12:28:51.787Z,13.11
2019-03-03T12:31:26.188Z,13.05
2019-03-03T12:34:01.716Z,12.93
2019-03-03T12:36:50.093Z,12.77
2019-03-03T12:39:29.401Z,12.49
2019-03-03T12:42:05.847Z,12.64
2019-03-03T12:44:48.181Z,12.62
2019-03-03T12:47:22.491Z,12.65
2019-03-03T12:50:01.048Z,12.71
2019-03-03T12:52:39.443Z,12.68
2019-03-03T12:55:16.727Z,12.58
2019-03-03T12:57:50.790Z,12.55
2019-03-03T13:00:27.053Z,12.61
2019-03-03T13:03:10.599Z,12.65
2019-03-03T13:06:04.379Z,12.54
2019-03-03T13:08:40.696Z,12.34
2019-03-03T13:11:33.219Z,12.37
2019-03-03T13:14:08.514Z,12.32
2019-03-03T13:16:50.007Z,12.40
2019-03-03T13:19:27.433Z,12.13
2019-03-03T13:22:00.924Z,12.32
2019-03-03T13:27:16.128Z,12.35
2019-03-03T13:29:51.468Z,12.28
2019-03-03T13:32:27.778Z,12.33
2019-03-03T13:35:01.164Z,12.38
2019-03-03T13:37:51.581Z,12.39
2019-03-03T13:40:27.010Z,12.39
2019-03-03T13:42:57.317Z,12.39
2019-03-03T13:45:33.041Z,12.54
2019-03-03T13:48:02.382Z,12.60
2019-03-03T13:50:31.768Z,12.56
2019-03-03T13:53:01.124Z,12.54
2019-03-03T13:55:30.565Z,12.72
2019-03-03T13:57:59.916Z,12.74
2019-03-03T14:00:29.296Z,12.64
2019-03-03T14:02:59.380Z,12.41
2019-03-03T14:05:28.809Z,12.38
2019-03-03T14:07:58.255Z,12.36
2019-03-03T14:10:27.599Z,12.43
2019-03-03T14:12:56.964Z,12.46
2019-03-03T14:15:26.265Z,12.32
2019-03-03T14:17:55.620Z,12.28
2019-03-03T14:20:25.955Z,12.20
2019-03-03T14:22:58.373Z,12.28
2019-03-03T14:25:27.728Z,12.20
2019-03-03T14:27:57.031Z,12.19
2019-03-03T14:30:27.107Z,12.21
2019-03-03T14:32:56.460Z,12.22
2019-03-03T14:35:25.860Z,12.23
2019-03-03T14:37:55.486Z,12.23
2019-03-03T14:40:24.801Z,12.28
2019-03-03T14:42:54.823Z,12.36
2019-03-03T14:45:25.001Z,12.37
2019-03-03T14:47:54.492Z,12.32
2019-03-03T14:50:23.999Z,12.32
2019-03-03T14:52:53.380Z,12.32
2019-03-03T14:55:22.793Z,12.35
2019-03-03T14:57:52.160Z,12.39
2019-03-03T15:00:28.316Z,12.38
2019-03-03T15:03:01.439Z,12.38
2019-03-03T15:05:30.787Z,12.41
2019-03-03T15:08:00.248Z,12.29
2019-03-03T15:10:29.548Z,12.26
2019-03-03T15:12:59.996Z,12.31
2019-03-03T15:15:30.626Z,12.22
2019-03-03T15:18:00.073Z,12.26
2019-03-03T15:20:29.743Z,12.21
2019-03-03T15:22:59.094Z,12.08
2019-03-03T15:25:28.393Z,12.12
2019-03-03T15:27:57.651Z,12.09
2019-03-03T15:30:26.912Z,12.12
2019-03-03T15:32:56.279Z,12.03
2019-03-03T15:35:25.567Z,12.09
2019-03-03T15:37:55.007Z,12.12
2019-03-03T15:40:24.535Z,12.02
2019-03-03T15:42:54.011Z,12.01
2019-03-03T15:45:23.421Z,12.00
2019-03-03T15:47:52.842Z,12.01
2019-03-03T15:50:22.132Z,12.04
2019-03-03T15:52:51.379Z,12.07
2019-03-03T15:55:20.690Z,12.15
2019-03-03T15:57:49.975Z,12.15
2019-03-03T16:00:22.147Z,12.09
2019-03-03T16:02:51.459Z,12.16
2019-03-03T16:05:21.375Z,12.08
2019-03-03T16:07:50.734Z,12.05
2019-03-03T16:10:20.038Z,12.10
2019-03-03T16:12:49.316Z,12.21
2019-03-03T16:15:18.856Z,12.12
2019-03-03T16:17:48.244Z,12.17
2019-03-03T16:20:18.698Z,12.05
2019-03-03T16:22:48.019Z,12.09
2019-03-03T16:25:17.980Z,12.18
2019-03-03T16:27:47.436Z,12.11
2019-03-03T16:30:18.854Z,12.15
2019-03-03T16:32:48.244Z,12.08
2019-03-03T16:35:17.687Z,12.08
2019-03-03T16:37:47.054Z,12.09
2019-03-03T16:40:19.390Z,12.08
2019-03-03T16:42:48.750Z,12.09
2019-03-03T16:45:18.217Z,12.10
2019-03-03T16:47:47.583Z,12.01
2019-03-03T16:50:18.029Z,12.03
2019-03-03T16:52:47.402Z,12.04
2019-03-03T16:55:16.888Z,12.04
2019-03-03T16:57:46.263Z,12.00
2019-03-03T17:00:18.457Z,12.08
2019-03-03T17:02:47.788Z,12.08
2019-03-03T17:05:18.242Z,12.03
2019-03-03T17:07:47.597Z,12.02
2019-03-03T17:10:16.913Z,11.96
2019-03-03T17:12:46.257Z,11.97
2019-03-03T17:15:18.982Z,11.99
2019-03-03T17:17:48.342Z,12.06
2019-03-03T17:20:17.582Z,12.01
2019-03-03T17:22:46.908Z,12.02
2019-03-03T17:25:19.433Z,12.05
2019-03-03T17:27:48.690Z,11.98
2019-03-03T17:30:20.068Z,12.01
2019-03-03T17:32:49.336Z,11.96
2019-03-03T17:35:18.756Z,11.98
2019-03-03T17:37:48.048Z,11.98
2019-03-03T17:40:19.229Z,11.99
2019-03-03T17:42:48.675Z,11.93
2019-03-03T17:45:19.843Z,11.97
2019-03-03T17:47:49.300Z,11.94
2019-03-03T17:50:20.247Z,11.91
2019-03-03T17:52:49.531Z,11.95
2019-03-03T17:55:18.857Z,11.95
2019-03-03T17:57:48.124Z,11.95
2019-03-03T18:00:20.299Z,11.92
2019-03-03T18:02:49.660Z,11.96
2019-03-03T18:05:20.083Z,11.99
2019-03-03T18:07:49.465Z,11.95
2019-03-03T18:10:19.123Z,11.93
2019-03-03T18:12:48.457Z,11.92
2019-03-03T18:15:17.878Z,11.91
2019-03-03T18:17:47.233Z,11.90
2019-03-03T18:20:16.821Z,11.90
2019-03-03T18:22:46.152Z,11.91
2019-03-03T18:25:16.131Z,11.91
2019-03-03T18:27:45.445Z,11.92
2019-03-03T18:30:18.023Z,11.92
2019-03-03T18:32:47.299Z,11.89
2019-03-03T18:35:16.756Z,11.93
2019-03-03T18:37:46.265Z,11.90
2019-03-03T18:40:18.066Z,11.92
2019-03-03T18:42:47.512Z,11.94
2019-03-03T18:45:17.101Z,11.94
2019-03-03T18:47:46.505Z,11.92
2019-03-03T18:50:17.284Z,11.93
2019-03-03T18:52:46.730Z,11.95
2019-03-03T18:55:16.720Z,11.98
2019-03-03T18:57:46.059Z,11.97
2019-03-03T19:00:19.453Z,12.02
2019-03-03T19:02:48.740Z,12.00
2019-03-03T19:05:18.185Z,11.98
2019-03-03T19:07:47.697Z,12.03
2019-03-03T19:10:18.032Z,12.02
2019-03-03T19:12:48.345Z,12.02
2019-03-03T19:15:18.407Z,11.97
2019-03-03T19:17:47.731Z,11.98
2019-03-03T19:20:18.491Z,11.96
2019-03-03T19:22:47.864Z,11.97
2019-03-03T19:25:17.292Z,11.98
2019-03-03T19:27:46.648Z,11.96
2019-03-03T19:30:22.394Z,11.95
2019-03-03T19:32:56.567Z,11.89
2019-03-03T19:35:25.832Z,11.96
2019-03-03T19:37:55.155Z,11.93
2019-03-03T19:40:24.469Z,11.94
2019-03-03T19:42:53.681Z,11.88
2019-03-03T19:45:26.249Z,11.89
2019-03-03T19:47:56.490Z,11.86
2019-03-03T19:50:25.832Z,11.86
2019-03-03T19:52:55.206Z,11.88
2019-03-03T19:55:24.600Z,11.84
2019-03-03T19:57:54.076Z,11.88
2019-03-03T20:00:35.490Z,11.86
2019-03-03T20:02:57.544Z,11.83
2019-03-03T20:05:26.903Z,11.85
2019-03-03T20:07:56.263Z,11.83
2019-03-03T20:10:25.624Z,11.82
2019-03-03T20:12:54.968Z,11.75
2019-03-03T20:15:24.249Z,11.77
2019-03-03T20:17:53.645Z,11.74
2019-03-03T20:20:22.984Z,11.73
2019-03-03T20:22:52.332Z,11.74
2019-03-03T20:25:21.693Z,11.74
2019-03-03T20:27:51.183Z,11.73
2019-03-03T20:30:20.544Z,11.75
2019-03-03T20:32:50.523Z,11.75
2019-03-03T20:35:20.063Z,11.73
2019-03-03T20:37:49.456Z,11.70
2019-03-03T20:40:18.872Z,11.64
2019-03-03T20:42:48.247Z,11.71
2019-03-03T20:45:20.600Z,11.67
2019-03-03T20:47:50.045Z,11.67
2019-03-03T20:50:20.663Z,11.73
2019-03-03T20:52:50.134Z,11.71
2019-03-03T20:55:20.520Z,11.69
2019-03-03T20:57:49.987Z,11.67
2019-03-03T21:00:22.866Z,11.68
2019-03-03T21:02:52.219Z,11.69
2019-03-03T21:05:21.627Z,11.68
2019-03-03T21:07:52.112Z,11.72
2019-03-03T21:10:21.591Z,11.73
2019-03-03T21:12:50.903Z,11.74
2019-03-03T21:15:20.401Z,11.67
2019-03-03T21:17:49.713Z,11.71
2019-03-03T21:20:19.489Z,11.68
2019-03-03T21:22:48.871Z,11.72
2019-03-03T21:25:18.362Z,11.69
2019-03-03T21:27:47.748Z,11.66
2019-03-03T21:30:20.481Z,11.68
2019-03-03T21:32:49.816Z,11.72
2019-03-03T21:35:19.201Z,11.70
2019-03-03T21:37:48.606Z,11.64
2019-03-03T21:40:18.834Z,11.68
2019-03-03T21:42:48.242Z,11.74
2019-03-03T21:45:19.239Z,11.72
2019-03-03T21:47:48.618Z,11.73
2019-03-03T21:50:20.724Z,11.73
2019-03-03T21:52:50.294Z,11.67
2019-03-03T21:55:19.728Z,11.71
2019-03-03T21:57:49.053Z,11.65
2019-03-03T22:00:24.783Z,11.69
2019-03-03T22:02:54.798Z,11.67
2019-03-03T22:05:24.200Z,11.66
2019-03-03T22:07:53.743Z,11.62
2019-03-03T22:10:27.112Z,11.52
2019-03-03T22:12:56.540Z,11.55
2019-03-03T22:15:25.863Z,11.47
2019-03-03T22:17:55.358Z,11.45
2019-03-03T22:20:24.667Z,11.39
2019-03-03T22:22:54.059Z,11.38
2019-03-03T22:25:23.422Z,11.39
2019-03-03T22:27:52.817Z,11.39
2019-03-03T22:30:22.275Z,11.40
2019-03-03T22:32:51.616Z,11.38
2019-03-03T22:35:21.120Z,11.37
2019-03-03T22:37:50.467Z,11.34
2019-03-03T22:40:19.819Z,11.33
2019-03-03T22:42:49.265Z,11.25
2019-03-03T22:45:18.829Z,11.21
2019-03-03T22:47:48.270Z,11.17
2019-03-03T22:50:17.721Z,11.16
2019-03-03T22:52:47.015Z,11.15
2019-03-03T22:55:16.674Z,11.06
2019-03-03T22:57:46.121Z,11.06
2019-03-03T23:00:37.280Z,11.04
2019-03-03T23:03:06.603Z,11.03
2019-03-03T23:05:52.953Z,11.03
2019-03-03T23:08:33.634Z,11.04
2019-03-03T23:11:29.167Z,11.04
2019-03-03T23:14:14.393Z,11.00
2019-03-03T23:17:06.528Z,11.00
2019-03-03T23:19:53.629Z,11.02
2019-03-03T23:22:44.000Z,11.01
2019-03-03T23:25:58.791Z,11.02
2019-03-03T23:28:28.098Z,10.99
2019-03-03T23:30:58.397Z,10.98
2019-03-03T23:33:28.405Z,10.96
2019-03-03T23:35:57.768Z,10.96
2019-03-03T23:38:27.085Z,11.05
2019-03-03T23:40:56.448Z,11.12
2019-03-03T23:43:25.818Z,11.17
2019-03-03T23:45:55.193Z,11.24
2019-03-03T23:48:24.783Z,11.29
2019-03-03T23:50:54.647Z,11.37
2019-03-03T23:53:23.899Z,11.44
2019-03-03T23:55:53.296Z,11.48
2019-03-03T23:58:22.603Z,11.51
